createdAt,value
2018-09-09T00:00:26.720Z,17.80
2018-09-09T00:02:55.549Z,17.70
2018-09-09T00:05:24.399Z,17.80
2018-09-09T00:07:53.278Z,17.70
2018-09-09T00:10:22.190Z,17.70
2018-09-09T00:12:51.058Z,17.70
2018-09-09T00:15:19.957Z,17.70
2018-09-09T00:17:48.812Z,17.70
2018-09-09T00:20:17.753Z,17.60
2018-09-09T00:22:46.736Z,17.60
2018-09-09T00:25:15.558Z,17.70
2018-09-09T00:27:47.447Z,17.70
2018-09-09T00:30:16.399Z,17.60
2018-09-09T00:32:45.243Z,17.70
2018-09-09T00:35:14.093Z,17.60
2018-09-09T00:37:42.947Z,17.70
2018-09-09T00:40:11.843Z,17.60
2018-09-09T00:42:40.699Z,17.60
2018-09-09T00:45:09.567Z,17.50
2018-09-09T00:47:45.109Z,17.50
2018-09-09T00:50:20.666Z,17.50
2018-09-09T00:52:55.275Z,17.50
2018-09-09T00:55:24.285Z,17.50
2018-09-09T00:57:53.114Z,17.50
2018-09-09T01:00:27.651Z,17.50
2018-09-09T01:02:56.474Z,17.50
2018-09-09T01:05:25.325Z,17.50
2018-09-09T01:07:54.301Z,17.50
2018-09-09T01:10:23.193Z,17.40
2018-09-09T01:12:52.070Z,17.40
2018-09-09T01:15:20.947Z,17.40
2018-09-09T01:17:49.792Z,17.30
2018-09-09T01:20:18.785Z,17.30
2018-09-09T01:22:47.637Z,17.30
2018-09-09T01:25:16.467Z,17.30
2018-09-09T01:27:45.309Z,17.30
2018-09-09T01:30:14.230Z,17.30
2018-09-09T01:32:43.091Z,17.30
2018-09-09T01:35:11.978Z,17.30
2018-09-09T01:37:40.827Z,17.30
2018-09-09T01:40:09.898Z,17.20
2018-09-09T01:42:38.754Z,17.10
2018-09-09T01:45:07.778Z,17.10
2018-09-09T01:47:36.684Z,17.10
2018-09-09T01:50:05.791Z,17.20
2018-09-09T01:52:34.668Z,17.20
2018-09-09T01:55:03.763Z,17.30
2018-09-09T01:57:32.655Z,17.20
2018-09-09T02:00:01.559Z,17.10
2018-09-09T02:02:30.407Z,17.10
2018-09-09T02:04:59.275Z,17.00
2018-09-09T02:07:28.120Z,17.00
2018-09-09T02:09:56.993Z,17.00
2018-09-09T02:12:25.831Z,16.90
2018-09-09T02:14:54.679Z,16.90
2018-09-09T02:17:23.512Z,16.90
2018-09-09T02:19:52.517Z,16.90
2018-09-09T02:22:21.355Z,16.90
2018-09-09T02:24:50.293Z,16.90
2018-09-09T02:27:19.159Z,17.00
2018-09-09T02:29:48.019Z,16.90
2018-09-09T02:32:17.444Z,16.90
2018-09-09T02:34:46.282Z,16.90
2018-09-09T02:37:15.120Z,16.90
2018-09-09T02:39:43.981Z,16.90
2018-09-09T02:42:12.825Z,16.90
2018-09-09T02:44:41.816Z,16.90
2018-09-09T02:47:10.691Z,16.80
2018-09-09T02:49:39.667Z,16.80
2018-09-09T02:52:08.523Z,16.80
2018-09-09T02:54:37.398Z,16.80
2018-09-09T02:57:06.336Z,16.80
2018-09-09T02:59:35.212Z,16.80
2018-09-09T03:02:04.111Z,16.80
2018-09-09T03:04:32.960Z,16.80
2018-09-09T03:07:01.812Z,16.70
2018-09-09T03:09:30.672Z,16.70
2018-09-09T03:11:59.496Z,16.70
2018-09-09T03:14:28.379Z,16.70
2018-09-09T03:16:57.219Z,16.60
2018-09-09T03:19:26.170Z,16.60
2018-09-09T03:21:55.052Z,16.60
2018-09-09T03:24:23.929Z,16.60
2018-09-09T03:26:52.773Z,16.70
2018-09-09T03:29:21.700Z,16.70
2018-09-09T03:31:50.564Z,16.70
2018-09-09T03:34:19.399Z,16.70
2018-09-09T03:36:48.384Z,16.80
2018-09-09T03:39:17.292Z,16.70
2018-09-09T03:41:46.180Z,16.80
2018-09-09T03:44:15.037Z,16.80
2018-09-09T03:46:43.928Z,16.90
2018-09-09T03:49:12.836Z,16.80
2018-09-09T03:51:41.683Z,16.70
2018-09-09T03:54:10.542Z,16.60
2018-09-09T03:56:39.392Z,16.60
2018-09-09T03:59:08.307Z,16.60
2018-09-09T04:01:37.200Z,16.60
2018-09-09T04:04:06.112Z,16.50
2018-09-09T04:06:34.976Z,16.50
2018-09-09T04:09:07.572Z,16.50
2018-09-09T04:11:36.459Z,16.40
2018-09-09T04:14:05.440Z,16.50
2018-09-09T04:16:34.280Z,16.50
2018-09-09T04:19:03.255Z,16.60
2018-09-09T04:21:36.820Z,16.60
2018-09-09T04:24:05.744Z,16.50
2018-09-09T04:26:34.564Z,16.50
2018-09-09T04:29:03.486Z,16.40
2018-09-09T04:31:32.377Z,16.30
2018-09-09T04:34:01.248Z,16.30
2018-09-09T04:36:30.210Z,16.30
2018-09-09T04:38:59.291Z,16.30
2018-09-09T04:41:28.192Z,16.30
2018-09-09T04:43:57.136Z,16.20
2018-09-09T04:46:26.066Z,16.20
2018-09-09T04:48:55.005Z,16.30
2018-09-09T04:51:23.846Z,16.30
2018-09-09T04:53:52.711Z,16.30
2018-09-09T04:56:21.703Z,16.30
2018-09-09T04:58:50.739Z,16.30
2018-09-09T05:01:19.653Z,16.40
2018-09-09T05:03:48.475Z,16.50
2018-09-09T05:06:17.297Z,16.60
2018-09-09T05:08:46.179Z,16.60
2018-09-09T05:11:15.112Z,16.70
2018-09-09T05:13:43.944Z,16.70
2018-09-09T05:16:13.035Z,16.70
2018-09-09T05:18:41.886Z,16.80
2018-09-09T05:21:10.799Z,16.70
2018-09-09T05:23:39.648Z,16.60
2018-09-09T05:26:08.514Z,16.70
2018-09-09T05:28:37.384Z,16.80
2018-09-09T05:31:06.626Z,16.80
2018-09-09T05:33:35.516Z,16.80
2018-09-09T05:36:04.412Z,16.80
2018-09-09T05:38:33.342Z,16.80
2018-09-09T05:41:02.252Z,16.80
2018-09-09T05:43:31.109Z,16.90
2018-09-09T05:45:59.939Z,16.90
2018-09-09T05:48:28.830Z,17.00
2018-09-09T05:50:58.697Z,17.00
2018-09-09T05:53:27.676Z,17.00
2018-09-09T05:55:56.539Z,17.10
2018-09-09T05:58:25.385Z,17.20
2018-09-09T06:00:54.301Z,17.20
2018-09-09T06:03:23.171Z,17.30
2018-09-09T06:05:52.081Z,17.30
2018-09-09T06:08:20.933Z,17.40
2018-09-09T06:10:53.248Z,17.40
2018-09-09T06:13:24.187Z,17.50
2018-09-09T06:15:53.040Z,17.50
2018-09-09T06:18:21.891Z,17.60
2018-09-09T06:20:50.847Z,17.50
2018-09-09T06:23:19.655Z,17.60
2018-09-09T06:25:48.527Z,17.60
2018-09-09T06:28:17.435Z,17.60
2018-09-09T06:30:46.283Z,17.60
2018-09-09T06:33:15.111Z,17.60
2018-09-09T06:35:43.976Z,17.60
2018-09-09T06:38:12.806Z,17.70
2018-09-09T06:40:41.832Z,17.80
2018-09-09T06:43:10.708Z,17.90
2018-09-09T06:45:39.617Z,18.00
2018-09-09T06:48:08.463Z,18.00
2018-09-09T06:50:37.406Z,18.00
2018-09-09T06:53:06.730Z,18.10
2018-09-09T06:55:35.572Z,18.20
2018-09-09T06:58:04.631Z,18.10
2018-09-09T07:00:33.591Z,18.20
2018-09-09T07:03:02.447Z,18.20
2018-09-09T07:05:31.336Z,18.30
2018-09-09T07:08:00.179Z,18.30
2018-09-09T07:10:29.056Z,18.40
2018-09-09T07:12:57.933Z,18.40
2018-09-09T07:15:26.820Z,18.50
2018-09-09T07:17:55.703Z,18.50
2018-09-09T07:20:24.622Z,18.60
2018-09-09T07:22:53.852Z,18.50
2018-09-09T07:25:22.761Z,18.50
2018-09-09T07:27:51.624Z,18.50
2018-09-09T07:30:20.590Z,18.50
2018-09-09T07:32:49.457Z,18.50
2018-09-09T07:35:18.384Z,18.60
2018-09-09T07:37:47.203Z,18.60
2018-09-09T07:40:16.164Z,18.70
2018-09-09T07:42:44.992Z,18.70
2018-09-09T07:45:13.838Z,18.80
2018-09-09T07:47:42.678Z,18.80
2018-09-09T07:50:11.628Z,18.80
2018-09-09T07:52:40.468Z,18.80
2018-09-09T07:55:09.449Z,18.90
2018-09-09T07:57:38.295Z,18.90
2018-09-09T08:00:07.747Z,18.90
2018-09-09T08:02:36.644Z,19.00
2018-09-09T08:05:05.704Z,19.00
2018-09-09T08:07:34.623Z,19.10
2018-09-09T08:10:03.664Z,19.10
2018-09-09T08:12:32.537Z,19.10
2018-09-09T08:15:01.464Z,19.20
2018-09-09T08:17:30.364Z,19.30
2018-09-09T08:19:59.412Z,19.40
2018-09-09T08:22:28.804Z,19.50
2018-09-09T08:24:57.738Z,19.50
2018-09-09T08:27:26.678Z,19.50
2018-09-09T08:29:56.210Z,19.50
2018-09-09T08:32:25.621Z,19.60
2018-09-09T08:34:54.632Z,19.70
2018-09-09T08:37:24.697Z,19.80
2018-09-09T08:39:53.888Z,19.90
2018-09-09T08:42:22.743Z,20.00
2018-09-09T08:44:51.620Z,20.00
2018-09-09T08:47:20.555Z,20.00
2018-09-09T08:49:49.482Z,20.00
2018-09-09T08:52:18.403Z,20.00
2018-09-09T08:54:47.236Z,20.10
2018-09-09T08:57:16.142Z,20.10
2018-09-09T08:59:45.034Z,20.10
2018-09-09T09:02:13.934Z,20.20
2018-09-09T09:04:42.795Z,20.30
2018-09-09T09:07:12.908Z,20.40
2018-09-09T09:09:42.024Z,20.50
2018-09-09T09:12:11.886Z,20.60
2018-09-09T09:14:42.457Z,20.60
2018-09-09T09:17:11.496Z,20.80
2018-09-09T09:19:40.480Z,20.90
2018-09-09T09:22:09.614Z,20.90
2018-09-09T09:24:38.452Z,21.00
2018-09-09T09:27:07.287Z,21.20
2018-09-09T09:29:41.840Z,21.30
2018-09-09T09:32:10.699Z,21.40
2018-09-09T09:34:39.755Z,21.30
2018-09-09T09:37:08.666Z,21.40
2018-09-09T09:39:37.634Z,21.40
2018-09-09T09:42:06.607Z,21.60
2018-09-09T09:44:35.484Z,21.50
2018-09-09T09:47:04.336Z,21.70
2018-09-09T09:49:33.311Z,21.80
2018-09-09T09:52:02.155Z,21.80
2018-09-09T09:54:31.025Z,21.80
2018-09-09T09:57:00.231Z,21.90
2018-09-09T09:59:29.364Z,21.80
2018-09-09T10:01:58.425Z,21.80
2018-09-09T10:04:27.457Z,21.70
2018-09-09T10:06:56.461Z,21.80
2018-09-09T10:09:25.545Z,21.90
2018-09-09T10:11:54.715Z,22.00
2018-09-09T10:14:23.611Z,22.00
2018-09-09T10:16:52.536Z,22.10
2018-09-09T10:19:21.582Z,22.10
2018-09-09T10:21:50.516Z,22.10
2018-09-09T10:24:19.419Z,22.20
2018-09-09T10:26:48.327Z,22.30
2018-09-09T10:29:17.323Z,22.50
2018-09-09T10:31:46.295Z,22.60
2018-09-09T10:34:15.152Z,22.80
2018-09-09T10:36:44.079Z,22.90
2018-09-09T10:39:13.131Z,23.10
2018-09-09T10:41:41.980Z,23.10
2018-09-09T10:44:10.860Z,23.30
2018-09-09T10:46:39.793Z,23.40
2018-09-09T10:49:08.629Z,23.50
2018-09-09T10:51:37.627Z,23.70
2018-09-09T10:54:06.628Z,23.70
2018-09-09T10:56:35.508Z,23.90
2018-09-09T10:59:04.686Z,24.00
2018-09-09T11:01:33.619Z,24.00
2018-09-09T11:04:02.649Z,24.10
2018-09-09T11:06:31.520Z,24.20
2018-09-09T11:09:00.408Z,24.30
2018-09-09T11:11:29.409Z,24.40
2018-09-09T11:13:58.292Z,24.60
2018-09-09T11:16:27.223Z,24.60
2018-09-09T11:18:56.224Z,24.70
2018-09-09T11:21:25.122Z,24.80
2018-09-09T11:23:53.999Z,25.00
2018-09-09T11:26:23.029Z,25.20
2018-09-09T11:28:51.959Z,25.40
2018-09-09T11:31:21.023Z,25.50
2018-09-09T11:33:50.498Z,25.60
2018-09-09T11:36:19.449Z,25.70
2018-09-09T11:38:48.299Z,25.90
2018-09-09T11:41:17.307Z,26.00
2018-09-09T11:43:46.410Z,26.20
2018-09-09T11:46:15.311Z,26.30
2018-09-09T11:48:44.191Z,26.40
2018-09-09T11:51:13.138Z,26.50
2018-09-09T11:53:42.053Z,26.70
2018-09-09T11:56:11.096Z,26.80
2018-09-09T11:58:39.979Z,27.00
2018-09-09T12:01:09.007Z,27.20
2018-09-09T12:03:37.943Z,27.40
2018-09-09T12:06:06.903Z,27.60
2018-09-09T12:08:35.915Z,27.80
2018-09-09T12:11:06.009Z,27.80
2018-09-09T12:13:34.889Z,28.00
2018-09-09T12:16:04.031Z,28.30
2018-09-09T12:18:32.975Z,28.70
2018-09-09T12:21:05.679Z,28.80
2018-09-09T12:23:34.545Z,29.20
2018-09-09T12:26:03.466Z,29.40
2018-09-09T12:28:32.360Z,29.40
2018-09-09T12:31:01.450Z,29.50
2018-09-09T12:33:30.662Z,29.60
2018-09-09T12:35:59.725Z,29.90
2018-09-09T12:38:28.639Z,30.00
2018-09-09T12:41:01.644Z,30.00
2018-09-09T12:43:36.187Z,30.10
2018-09-09T12:46:10.824Z,30.00
2018-09-09T12:48:45.332Z,30.10
2018-09-09T12:51:15.384Z,30.20
2018-09-09T12:53:44.259Z,30.40
2018-09-09T12:56:13.127Z,30.60
2018-09-09T12:58:42.263Z,30.80
2018-09-09T13:01:15.235Z,30.80
2018-09-09T13:03:44.111Z,30.90
2018-09-09T13:06:13.006Z,31.00
2018-09-09T13:08:41.915Z,31.20
2018-09-09T13:11:11.012Z,31.20
2018-09-09T13:13:39.908Z,31.20
2018-09-09T13:16:08.767Z,31.30
2018-09-09T13:18:37.685Z,31.20
2018-09-09T13:21:06.837Z,31.30
2018-09-09T13:23:35.726Z,31.50
2018-09-09T13:26:04.767Z,31.50
2018-09-09T13:28:33.644Z,31.60
2018-09-09T13:31:03.732Z,31.60
2018-09-09T13:33:32.923Z,31.70
2018-09-09T13:36:01.786Z,31.60
2018-09-09T13:38:31.768Z,31.60
2018-09-09T13:41:00.719Z,31.70
2018-09-09T13:43:29.648Z,31.70
2018-09-09T13:45:58.525Z,31.80
2018-09-09T13:48:27.422Z,31.80
2018-09-09T13:50:56.521Z,31.70
2018-09-09T13:53:25.359Z,31.70
2018-09-09T13:55:54.228Z,31.60
2018-09-09T13:58:23.243Z,31.70
2018-09-09T14:00:53.277Z,31.70
2018-09-09T14:03:22.128Z,31.70
2018-09-09T14:05:50.983Z,31.80
2018-09-09T14:08:20.023Z,31.70
2018-09-09T14:10:48.985Z,31.60
2018-09-09T14:13:18.433Z,31.70
2018-09-09T14:15:47.368Z,31.80
2018-09-09T14:18:16.265Z,31.50
2018-09-09T14:20:45.186Z,31.50
2018-09-09T14:23:14.031Z,31.60
2018-09-09T14:25:42.894Z,31.70
2018-09-09T14:28:11.755Z,31.70
2018-09-09T14:30:40.684Z,31.50
2018-09-09T14:33:09.573Z,31.50
2018-09-09T14:35:38.464Z,31.50
2018-09-09T14:38:07.340Z,31.30
2018-09-09T14:40:36.331Z,31.10
2018-09-09T14:43:05.392Z,31.10
2018-09-09T14:45:34.256Z,30.90
2018-09-09T14:48:03.171Z,30.80
2018-09-09T14:50:32.093Z,30.70
2018-09-09T14:53:00.990Z,30.60
2018-09-09T14:55:29.830Z,30.50
2018-09-09T14:57:58.695Z,30.00
2018-09-09T15:00:27.691Z,29.80
2018-09-09T15:02:56.592Z,29.20
2018-09-09T15:05:25.592Z,29.00
2018-09-09T15:07:54.659Z,28.80
2018-09-09T15:10:23.772Z,28.50
2018-09-09T15:12:52.639Z,28.40
2018-09-09T15:15:21.503Z,28.40
2018-09-09T15:17:50.348Z,28.50
2018-09-09T15:20:19.200Z,28.40
2018-09-09T15:22:48.015Z,27.90
2018-09-09T15:25:16.863Z,27.60
2018-09-09T15:27:45.712Z,27.60
2018-09-09T15:30:14.619Z,27.60
2018-09-09T15:32:43.411Z,27.50
2018-09-09T15:35:12.243Z,27.70
2018-09-09T15:37:41.095Z,27.80
2018-09-09T15:40:10.008Z,27.80
2018-09-09T15:42:38.814Z,27.60
2018-09-09T15:45:07.705Z,27.50
2018-09-09T15:47:36.532Z,27.60
2018-09-09T15:50:05.527Z,27.40
2018-09-09T15:52:34.360Z,27.30
2018-09-09T15:55:03.271Z,27.10
2018-09-09T15:57:32.099Z,27.00
2018-09-09T16:00:00.998Z,27.00
2018-09-09T16:02:29.892Z,27.00
2018-09-09T16:04:58.719Z,27.10
2018-09-09T16:07:27.715Z,27.10
2018-09-09T16:09:56.579Z,26.90
2018-09-09T16:12:25.440Z,26.80
2018-09-09T16:14:54.280Z,26.70
2018-09-09T16:17:23.114Z,26.50
2018-09-09T16:19:52.095Z,26.30
2018-09-09T16:22:20.952Z,26.30
2018-09-09T16:24:49.796Z,26.20
2018-09-09T16:27:18.672Z,26.20
2018-09-09T16:29:47.724Z,26.30
2018-09-09T16:32:16.627Z,26.30
2018-09-09T16:34:45.552Z,26.30
2018-09-09T16:37:14.403Z,26.20
2018-09-09T16:39:43.336Z,26.00
2018-09-09T16:42:12.135Z,26.10
2018-09-09T16:44:41.012Z,26.00
2018-09-09T16:47:09.952Z,26.10
2018-09-09T16:49:38.995Z,26.00
2018-09-09T16:52:07.852Z,26.00
2018-09-09T16:54:36.950Z,25.90
2018-09-09T16:57:06.072Z,25.90
2018-09-09T16:59:35.009Z,25.80
2018-09-09T17:02:03.872Z,25.70
2018-09-09T17:04:32.709Z,25.60
2018-09-09T17:07:01.527Z,25.50
2018-09-09T17:09:30.355Z,25.40
2018-09-09T17:11:59.204Z,25.30
2018-09-09T17:14:28.050Z,25.20
2018-09-09T17:16:56.940Z,25.10
2018-09-09T17:19:25.811Z,25.00
2018-09-09T17:21:54.664Z,24.90
2018-09-09T17:24:23.563Z,24.80
2018-09-09T17:26:52.501Z,24.70
2018-09-09T17:29:21.396Z,24.60
2018-09-09T17:31:50.246Z,24.40
2018-09-09T17:34:19.099Z,24.40
2018-09-09T17:36:47.961Z,24.40
2018-09-09T17:39:16.848Z,24.20
2018-09-09T17:41:45.688Z,24.20
2018-09-09T17:44:14.503Z,24.10
2018-09-09T17:46:43.348Z,24.00
2018-09-09T17:49:12.158Z,24.00
2018-09-09T17:51:41.071Z,23.90
2018-09-09T17:54:09.965Z,23.90
2018-09-09T17:56:38.809Z,23.90
2018-09-09T17:59:07.745Z,23.90
2018-09-09T18:01:36.719Z,23.80
2018-09-09T18:04:05.780Z,23.70
2018-09-09T18:06:34.671Z,23.70
2018-09-09T18:09:05.123Z,23.60
2018-09-09T18:11:33.980Z,23.50
2018-09-09T18:14:02.853Z,23.60
2018-09-09T18:16:32.375Z,23.50
2018-09-09T18:19:01.213Z,23.40
2018-09-09T18:21:30.048Z,23.40
2018-09-09T18:23:58.907Z,23.30
2018-09-09T18:26:27.746Z,23.20
2018-09-09T18:28:56.770Z,23.20
2018-09-09T18:31:25.717Z,23.20
2018-09-09T18:33:54.869Z,23.10
2018-09-09T18:36:23.764Z,23.10
2018-09-09T18:38:52.642Z,23.10
2018-09-09T18:41:21.604Z,23.00
2018-09-09T18:43:51.061Z,23.00
2018-09-09T18:46:19.871Z,22.90
2018-09-09T18:48:48.765Z,22.80
2018-09-09T18:51:17.864Z,22.70
2018-09-09T18:53:46.741Z,22.60
2018-09-09T18:56:15.583Z,22.50
2018-09-09T18:58:44.424Z,22.40
2018-09-09T19:01:13.346Z,22.40
2018-09-09T19:03:42.195Z,22.30
2018-09-09T19:06:11.793Z,22.30
2018-09-09T19:08:40.558Z,22.20
2018-09-09T19:11:09.433Z,22.10
2018-09-09T19:13:38.840Z,22.10
2018-09-09T19:16:07.684Z,22.00
2018-09-09T19:18:36.569Z,22.00
2018-09-09T19:21:05.487Z,22.00
2018-09-09T19:23:35.071Z,21.90
2018-09-09T19:26:03.961Z,21.90
2018-09-09T19:28:32.839Z,21.90
2018-09-09T19:31:02.018Z,21.80
2018-09-09T19:33:30.846Z,21.70
2018-09-09T19:35:59.679Z,21.80
2018-09-09T19:38:29.899Z,21.70
2018-09-09T19:40:58.724Z,21.70
2018-09-09T19:43:27.635Z,21.60
2018-09-09T19:45:56.479Z,21.60
2018-09-09T19:48:25.356Z,21.60
2018-09-09T19:50:54.300Z,21.60
2018-09-09T19:53:23.536Z,21.60
2018-09-09T19:55:52.635Z,21.60
2018-09-09T19:58:21.601Z,21.60
2018-09-09T20:00:50.924Z,21.50
2018-09-09T20:03:19.847Z,21.50
2018-09-09T20:05:48.771Z,21.40
2018-09-09T20:08:17.601Z,21.40
2018-09-09T20:10:46.565Z,21.40
2018-09-09T20:13:15.412Z,21.30
2018-09-09T20:15:44.309Z,21.30
2018-09-09T20:18:13.166Z,21.30
2018-09-09T20:20:42.010Z,21.20
2018-09-09T20:23:11.153Z,21.10
2018-09-09T20:25:40.057Z,21.10
2018-09-09T20:28:08.885Z,21.00
2018-09-09T20:30:37.811Z,21.00
2018-09-09T20:33:06.515Z,20.90
2018-09-09T20:35:35.388Z,20.90
2018-09-09T20:38:04.347Z,20.90
2018-09-09T20:40:33.510Z,20.90
2018-09-09T20:43:02.459Z,20.80
2018-09-09T20:45:31.348Z,20.80
2018-09-09T20:48:00.201Z,20.80
2018-09-09T20:50:29.116Z,20.80
2018-09-09T20:52:57.939Z,20.80
2018-09-09T20:55:26.784Z,20.80
2018-09-09T20:57:55.651Z,20.80
2018-09-09T21:00:24.709Z,20.70
2018-09-09T21:02:53.519Z,20.60
2018-09-09T21:05:22.388Z,20.60
2018-09-09T21:07:51.264Z,20.60
2018-09-09T21:10:20.160Z,20.60
2018-09-09T21:12:49.103Z,20.60
2018-09-09T21:15:18.055Z,20.50
2018-09-09T21:17:46.936Z,20.50
2018-09-09T21:20:15.932Z,20.40
2018-09-09T21:22:44.792Z,20.40
2018-09-09T21:25:13.622Z,20.40
2018-09-09T21:27:42.499Z,20.30
2018-09-09T21:30:11.408Z,20.30
2018-09-09T21:32:40.291Z,20.30
2018-09-09T21:35:09.161Z,20.20
2018-09-09T21:37:38.021Z,20.20
2018-09-09T21:40:06.967Z,20.10
2018-09-09T21:42:35.927Z,20.10
2018-09-09T21:45:05.438Z,20.10
2018-09-09T21:47:34.323Z,20.10
2018-09-09T21:50:03.320Z,20.00
2018-09-09T21:52:32.303Z,20.00
2018-09-09T21:55:01.237Z,19.90
2018-09-09T21:57:30.080Z,19.90
2018-09-09T21:59:58.943Z,19.90
2018-09-09T22:02:27.818Z,19.90
2018-09-09T22:04:56.788Z,19.90
2018-09-09T22:07:25.785Z,19.80
2018-09-09T22:09:54.733Z,19.80
2018-09-09T22:12:23.736Z,19.80
2018-09-09T22:14:52.566Z,19.70
2018-09-09T22:17:21.375Z,19.70
2018-09-09T22:19:50.299Z,19.70
2018-09-09T22:22:19.118Z,19.70
2018-09-09T22:24:47.936Z,19.60
2018-09-09T22:27:16.848Z,19.60
2018-09-09T22:29:45.747Z,19.60
2018-09-09T22:32:14.576Z,19.50
2018-09-09T22:34:43.443Z,19.50
2018-09-09T22:37:12.307Z,19.50
2018-09-09T22:39:41.360Z,19.40
2018-09-09T22:42:10.220Z,19.40
2018-09-09T22:44:39.060Z,19.30
2018-09-09T22:47:07.898Z,19.40
2018-09-09T22:49:36.787Z,19.30
2018-09-09T22:52:06.163Z,19.30
2018-09-09T22:54:34.995Z,19.30
2018-09-09T22:57:03.903Z,19.30
2018-09-09T22:59:32.745Z,19.20
2018-09-09T23:02:01.582Z,19.20
2018-09-09T23:04:30.427Z,19.20
2018-09-09T23:06:59.361Z,19.20
2018-09-09T23:09:28.404Z,19.10
2018-09-09T23:11:57.219Z,19.10
2018-09-09T23:14:26.035Z,19.00
2018-09-09T23:16:54.888Z,19.00
2018-09-09T23:19:23.764Z,19.00
2018-09-09T23:21:52.599Z,18.90
2018-09-09T23:24:21.463Z,18.90
2018-09-09T23:26:50.286Z,18.90
2018-09-09T23:29:19.364Z,18.90
2018-09-09T23:31:48.267Z,18.80
2018-09-09T23:34:17.211Z,18.80
2018-09-09T23:36:46.048Z,18.80
2018-09-09T23:39:14.892Z,18.80
2018-09-09T23:41:43.740Z,18.70
2018-09-09T23:44:12.562Z,18.70
2018-09-09T23:46:41.551Z,18.70
2018-09-09T23:49:10.472Z,18.70
2018-09-09T23:51:39.354Z,18.70
2018-09-09T23:54:08.201Z,18.70
2018-09-09T23:56:37.256Z,18.60
2018-09-09T23:59:06.239Z,18.60
